AirNav   Pilot Hours Calculator
 
 334 users online  

CT09 Heckler Field Airport
Coventry, Connecticut, USA

GOING TO COVENTRY?


FAA INFORMATION EFFECTIVE 07 NOVEMBER 2019

Location

FAA Identifier: CT09
Lat/Long: 41-48-10.3540N 072-23-30.2970W
41-48.172567N 072-23.504950W
41.8028761,-72.3917492
(estimated)
Elevation: 793 ft. / 241.7 m (surveyed)
Variation: 15W (1985)
From city: 4 miles NW of COVENTRY, CT
Time zone: UTC -5 (UTC -4 during Daylight Saving Time)
Zip code: 06238

Airport Operations

Airport use: Private use. Permission required prior to landing
Activation date: 11/1961
Control tower: no
ARTCC: BOSTON CENTER
FSS: BRIDGEPORT FLIGHT SERVICE STATION
Attendance: UNATNDD
Wind indicator: yes
Segmented circle: no

Airport Communications

WX ASOS at IJD (10 nm E): 133.675 (860-456-8839)
WX ASOS at HFD (12 nm W): PHONE 860-527-5837
WX ASOS at BDL (15 nm NW): PHONE 860-386-3480
WX AWOS-AV at CT71 (19 nm W): 129.825

Nearby radio navigation aids

VOR radial/distance  VOR name  Freq  Var
HFDr049/12.0HARTFORD VOR/DME114.9013W
ORWr324/23.0NORWICH VOR/DME110.0014W
BAFr160/26.0BARNES VORTAC113.0014W
PUTr263/26.1PUTNAM VOR/DME117.4014W
GONr346/32.2GROTON VOR/DME110.8514W
MADr038/32.3MADISON VOR/DME110.4013W
CTRr153/38.4CHESTER VOR/DME115.1013W

Airport Services

Airframe service: NONE
Powerplant service: NONE

Runway Information

Runway 16/34

Dimensions: 1360 x 120 ft. / 415 x 37 m
Surface: turf
RUNWAY 16  RUNWAY 34
Traffic pattern: leftleft
Obstructions: 20 ft. treefence

Airport Ownership and Management from official FAA records

Ownership: Privately-owned
Owner: ALFRED D HECKLER
RFD 4,BOX 203
COVENTRY, CT 06238
Phone 203-742-6519
Manager: ALFRED D HECKLER
RFD 4,BOX 203
COVENTRY, CT 06238
Phone 203-742-6519

Additional Remarks

FOR CD CTC YANKEE APCH AT 860-386-3597

Instrument Procedures

There are no published instrument procedures at CT09.

Some nearby airports with instrument procedures:

KIJD - Windham Airport (10 nm E)
KHFD - Hartford-Brainard Airport (12 nm W)
KBDL - Bradley International Airport (15 nm NW)
KLZD - Danielson Airport (22 nm E)
4B8 - Robertson Field Airport (22 nm W)
 
Loc | Ops | Rwys | IFR | FBO | Links
Com | Nav | Svcs | Stats | Notes

Silver City Flying Club
 
Area around CT09 (Heckler Field Airport)
 
Road maps at: MapQuest Bing Google
 
Aerial photo
No photo
 
Sectional chart

 
Airport distance calculator
Flying to Heckler Field Airport? Find the distance to fly.

From to CT09

Sunrise and sunset
Times for 15-Nov-2019
 Local
(UTC-5)
 Zulu
(UTC)
Morning civil twilight06:1011:10
Sunrise06:4011:40
Sunset16:2821:28
Evening civil twilight16:5821:58

Current date and time
Zulu (UTC)  15-Nov-2019 07:50:06
Local (UTC-5)  15-Nov-2019 02:50:06
 
METAR
KIJD 
10nm E 
150652Z AUTO 00000KT CLR M03/M04 A3026 RMK AO2 SLP248 T10281039 $
KHFD 
12nm W 
150653Z AUTO 00000KT 9SM CLR M02/M04 A3025 RMK AO2 SLP243 T10221044
KBDL 
15nm NW 
150651Z 19006KT 10SM FEW110 SCT250 M02/M06 A3023 RMK AO2 SLP239 T10171056
TAF
KBDL 
15nm NW 
150522Z 1506/1612 21003KT P6SM FEW120 FM151700 24007KT P6SM FEW250 FM152300 28006KT P6SM FEW200 FM160200 31007KT P6SM FEW250 FM160500 33010G20KT P6SM SCT050 FM160700 36011G22KT P6SM SCT250
NOTAMs
Click for the latest NOTAMs
NOTAMs are issued by the DoD/FAA and will open in a separate window not controlled by AirNav.

 

 
 

Would you like to see your business listed on this page?

 If your business provides an interesting product or service to pilots, flight crews, aircraft, or users of the Heckler Field Airport, you should consider listing it here.  To start the listing process, click on the button below
 
Add a business
 

Other Pages about Heckler Field Airport

Update a link
 
Copyright © AirNav, LLC. All rights reserved. Privacy Policy  Contact